sensor_id;sensor_type;location;lat;lon;timestamp;pressure;altitude;pressure_sealevel;temperature;humidity
78411;BME280;67706;51.074;-1.796;2023-04-16T00:01:00;102125.44;;;8.09;78.82
78411;BME280;67706;51.074;-1.796;2023-04-16T00:03:27;102127.63;;;8.05;78.94
78411;BME280;67706;51.074;-1.796;2023-04-16T00:05:53;102122.56;;;8.10;78.93
78411;BME280;67706;51.074;-1.796;2023-04-16T00:08:21;102125.84;;;8.14;79.10
78411;BME280;67706;51.074;-1.796;2023-04-16T00:10:49;102122.94;;;8.25;78.16
78411;BME280;67706;51.074;-1.796;2023-04-16T00:13:18;102117.69;;;8.41;77.30
78411;BME280;67706;51.074;-1.796;2023-04-16T00:15:44;102113.75;;;8.26;77.98
78411;BME280;67706;51.074;-1.796;2023-04-16T00:18:11;102118.78;;;8.21;78.25
78411;BME280;67706;51.074;-1.796;2023-04-16T00:20:38;102113.06;;;8.14;78.20
78411;BME280;67706;51.074;-1.796;2023-04-16T00:23:04;102117.72;;;8.04;78.81
78411;BME280;67706;51.074;-1.796;2023-04-16T00:25:31;102114.63;;;7.89;79.05
78411;BME280;67706;51.074;-1.796;2023-04-16T00:27:58;102119.59;;;8.03;78.64
78411;BME280;67706;51.074;-1.796;2023-04-16T00:30:26;102119.59;;;8.03;78.74
78411;BME280;67706;51.074;-1.796;2023-04-16T00:32:53;102119.25;;;8.07;78.54
78411;BME280;67706;51.074;-1.796;2023-04-16T00:35:20;102121.72;;;8.10;78.45
78411;BME280;67706;51.074;-1.796;2023-04-16T00:37:47;102114.28;;;8.02;78.64
78411;BME280;67706;51.074;-1.796;2023-04-16T00:40:14;102116.41;;;8.08;78.47
78411;BME280;67706;51.074;-1.796;2023-04-16T00:42:40;102111.66;;;8.10;77.97
78411;BME280;67706;51.074;-1.796;2023-04-16T00:45:08;102122.69;;;8.09;78.20
78411;BME280;67706;51.074;-1.796;2023-04-16T00:47:37;102112.19;;;8.14;78.21
78411;BME280;67706;51.074;-1.796;2023-04-16T00:50:04;102116.78;;;8.13;78.11
78411;BME280;67706;51.074;-1.796;2023-04-16T00:52:31;102125.16;;;8.12;78.34
78411;BME280;67706;51.074;-1.796;2023-04-16T00:54:59;102117.94;;;8.11;78.60
78411;BME280;67706;51.074;-1.796;2023-04-16T00:57:26;102115.81;;;8.04;78.66
78411;BME280;67706;51.074;-1.796;2023-04-16T00:59:53;102116.78;;;8.13;78.23
78411;BME280;67706;51.074;-1.796;2023-04-16T01:02:20;102111.78;;;8.09;78.55
78411;BME280;67706;51.074;-1.796;2023-04-16T01:04:48;102113.94;;;8.05;78.39
78411;BME280;67706;51.074;-1.796;2023-04-16T01:07:15;102112.00;;;7.97;78.92
78411;BME280;67706;51.074;-1.796;2023-04-16T01:09:42;102115.09;;;8.12;78.67
78411;BME280;67706;51.074;-1.796;2023-04-16T01:12:09;102110.94;;;8.08;78.99
78411;BME280;67706;51.074;-1.796;2023-04-16T01:14:36;102114.75;;;8.15;78.73
78411;BME280;67706;51.074;-1.796;2023-04-16T01:17:03;102110.31;;;8.14;78.82
78411;BME280;67706;51.074;-1.796;2023-04-16T01:19:29;102109.91;;;8.09;78.86
78411;BME280;67706;51.074;-1.796;2023-04-16T01:21:58;102109.91;;;8.09;78.54
78411;BME280;67706;51.074;-1.796;2023-04-16T01:24:24;102109.19;;;8.07;78.63
78411;BME280;67706;51.074;-1.796;2023-04-16T01:26:51;102104.59;;;8.08;78.57
78411;BME280;67706;51.074;-1.796;2023-04-16T01:29:18;102106.38;;;7.99;78.81
78411;BME280;67706;51.074;-1.796;2023-04-16T01:31:45;102101.59;;;8.01;78.82
78411;BME280;67706;51.074;-1.796;2023-04-16T01:34:11;102107.94;;;8.01;78.49
78411;BME280;67706;51.074;-1.796;2023-04-16T01:36:38;102111.94;;;8.07;78.63
78411;BME280;67706;51.074;-1.796;2023-04-16T01:39:06;102105.06;;;8.03;78.47
78411;BME280;67706;51.074;-1.796;2023-04-16T01:41:36;102102.97;;;7.87;78.51
78411;BME280;67706;51.074;-1.796;2023-04-16T01:44:02;102112.75;;;7.80;78.99
78411;BME280;67706;51.074;-1.796;2023-04-16T01:46:31;102108.84;;;7.92;78.98
78411;BME280;67706;51.074;-1.796;2023-04-16T01:48:58;102105.38;;;7.90;78.54
78411;BME280;67706;51.074;-1.796;2023-04-16T01:51:26;102103.88;;;8.06;78.43
78411;BME280;67706;51.074;-1.796;2023-04-16T01:53:53;102099.03;;;7.99;78.71
78411;BME280;67706;51.074;-1.796;2023-04-16T01:56:21;102091.56;;;7.92;79.63
78411;BME280;67706;51.074;-1.796;2023-04-16T01:58:48;102097.63;;;7.95;80.04
78411;BME280;67706;51.074;-1.796;2023-04-16T02:01:15;102099.50;;;7.85;80.42
78411;BME280;67706;51.074;-1.796;2023-04-16T02:03:42;102100.97;;;7.80;80.84
78411;BME280;67706;51.074;-1.796;2023-04-16T02:06:12;102098.69;;;7.75;80.67
78411;BME280;67706;51.074;-1.796;2023-04-16T02:08:39;102091.25;;;7.68;80.97
78411;BME280;67706;51.074;-1.796;2023-04-16T02:11:06;102083.34;;;7.65;80.96
78411;BME280;67706;51.074;-1.796;2023-04-16T02:13:34;102094.13;;;7.66;80.72
78411;BME280;67706;51.074;-1.796;2023-04-16T02:16:01;102092.00;;;7.60;80.87
78411;BME280;67706;51.074;-1.796;2023-04-16T02:18:27;102091.41;;;7.57;81.03
78411;BME280;67706;51.074;-1.796;2023-04-16T02:20:57;102093.75;;;7.52;80.94
78411;BME280;67706;51.074;-1.796;2023-04-16T02:23:24;102098.06;;;7.45;81.00
78411;BME280;67706;51.074;-1.796;2023-04-16T02:25:51;102100.94;;;7.43;81.43
78411;BME280;67706;51.074;-1.796;2023-04-16T02:28:18;102100.22;;;7.41;81.35
78411;BME280;67706;51.074;-1.796;2023-04-16T02:30:46;102100.06;;;7.33;81.51
78411;BME280;67706;51.074;-1.796;2023-04-16T02:33:13;102093.63;;;7.34;81.59
78411;BME280;67706;51.074;-1.796;2023-04-16T02:35:40;102093.50;;;7.26;81.66
78411;BME280;67706;51.074;-1.796;2023-04-16T02:38:07;102092.91;;;7.32;81.42
78411;BME280;67706;51.074;-1.796;2023-04-16T02:40:34;102093.19;;;7.29;81.64
78411;BME280;67706;51.074;-1.796;2023-04-16T02:43:01;102086.31;;;7.25;81.88
78411;BME280;67706;51.074;-1.796;2023-04-16T02:45:28;102078.00;;;7.27;81.95
78411;BME280;67706;51.074;-1.796;2023-04-16T02:47:57;102090.78;;;7.26;81.99
78411;BME280;67706;51.074;-1.796;2023-04-16T02:50:24;102083.56;;;7.25;81.75
78411;BME280;67706;51.074;-1.796;2023-04-16T02:52:51;102090.63;;;7.28;82.30
78411;BME280;67706;51.074;-1.796;2023-04-16T02:55:18;102086.44;;;7.43;81.73
78411;BME280;67706;51.074;-1.796;2023-04-16T02:57:45;102088.44;;;7.41;81.80
78411;BME280;67706;51.074;-1.796;2023-04-16T03:00:12;102087.56;;;7.40;82.35
78411;BME280;67706;51.074;-1.796;2023-04-16T03:02:39;102092.88;;;7.51;81.72
78411;BME280;67706;51.074;-1.796;2023-04-16T03:05:08;102086.84;;;7.48;81.71
78411;BME280;67706;51.074;-1.796;2023-04-16T03:07:36;102091.44;;;7.47;82.01
78411;BME280;67706;51.074;-1.796;2023-04-16T03:10:06;102092.03;;;7.41;81.53
78411;BME280;67706;51.074;-1.796;2023-04-16T03:12:33;102096.78;;;7.39;81.59
78411;BME280;67706;51.074;-1.796;2023-04-16T03:15:00;102092.63;;;7.35;81.80
78411;BME280;67706;51.074;-1.796;2023-04-16T03:17:27;102089.63;;;7.29;82.36
78411;BME280;67706;51.074;-1.796;2023-04-16T03:19:54;102094.63;;;7.33;82.29
78411;BME280;67706;51.074;-1.796;2023-04-16T03:22:22;102088.88;;;7.36;82.16
78411;BME280;67706;51.074;-1.796;2023-04-16T03:24:49;102088.31;;;7.23;82.42
78411;BME280;67706;51.074;-1.796;2023-04-16T03:27:20;102084.16;;;7.29;82.49
78411;BME280;67706;51.074;-1.796;2023-04-16T03:29:46;102082.16;;;7.31;82.78
78411;BME280;67706;51.074;-1.796;2023-04-16T03:32:13;102085.19;;;7.18;82.58
78411;BME280;67706;51.074;-1.796;2023-04-16T03:34:40;102087.59;;;7.21;83.19
78411;BME280;67706;51.074;-1.796;2023-04-16T03:37:07;102083.69;;;7.43;82.15
78411;BME280;67706;51.074;-1.796;2023-04-16T03:39:37;102092.88;;;7.42;82.27
78411;BME280;67706;51.074;-1.796;2023-04-16T03:42:04;102090.63;;;7.37;82.64
78411;BME280;67706;51.074;-1.796;2023-04-16T03:44:31;102088.00;;;7.36;82.60
78411;BME280;67706;51.074;-1.796;2023-04-16T03:46:57;102090.31;;;7.40;82.49
78411;BME280;67706;51.074;-1.796;2023-04-16T03:49:24;102088.00;;;7.45;81.86
78411;BME280;67706;51.074;-1.796;2023-04-16T03:51:51;102087.56;;;7.40;82.22
78411;BME280;67706;51.074;-1.796;2023-04-16T03:54:18;102084.28;;;7.37;82.23
78411;BME280;67706;51.074;-1.796;2023-04-16T03:56:46;102084.13;;;7.38;82.56
78411;BME280;67706;51.074;-1.796;2023-04-16T03:59:13;102083.13;;;7.39;82.32
78411;BME280;67706;51.074;-1.796;2023-04-16T04:01:40;102079.81;;;7.45;82.25
78411;BME280;67706;51.074;-1.796;2023-04-16T04:04:06;102079.69;;;7.37;82.38
78411;BME280;67706;51.074;-1.796;2023-04-16T04:06:33;102085.44;;;7.34;82.75
78411;BME280;67706;51.074;-1.796;2023-04-16T04:09:00;102083.41;;;7.36;82.30
78411;BME280;67706;51.074;-1.796;2023-04-16T04:11:31;102078.69;;;7.38;82.73
78411;BME280;67706;51.074;-1.796;2023-04-16T04:14:02;102082.44;;;7.37;82.88
78411;BME280;67706;51.074;-1.796;2023-04-16T04:16:29;102090.63;;;7.37;82.81
78411;BME280;67706;51.074;-1.796;2023-04-16T04:18:56;102090.75;;;7.36;82.91
78411;BME280;67706;51.074;-1.796;2023-04-16T04:21:25;102084.88;;;7.31;83.32
78411;BME280;67706;51.074;-1.796;2023-04-16T04:23:51;102089.72;;;7.46;82.00
78411;BME280;67706;51.074;-1.796;2023-04-16T04:26:18;102088.72;;;7.38;82.49
78411;BME280;67706;51.074;-1.796;2023-04-16T04:28:45;102092.91;;;7.32;83.03
78411;BME280;67706;51.074;-1.796;2023-04-16T04:31:13;102080.97;;;7.33;82.71
78411;BME280;67706;51.074;-1.796;2023-04-16T04:33:40;102088.03;;;7.26;83.41
78411;BME280;67706;51.074;-1.796;2023-04-16T04:36:07;102076.41;;;7.24;83.01
78411;BME280;67706;51.074;-1.796;2023-04-16T04:38:34;102082.47;;;7.18;83.24
78411;BME280;67706;51.074;-1.796;2023-04-16T04:41:00;102078.56;;;7.11;84.00
78411;BME280;67706;51.074;-1.796;2023-04-16T04:43:27;102079.28;;;7.13;83.66
78411;BME280;67706;51.074;-1.796;2023-04-16T04:45:54;102084.47;;;7.16;83.81
78411;BME280;67706;51.074;-1.796;2023-04-16T04:48:22;102087.16;;;7.26;83.73
78411;BME280;67706;51.074;-1.796;2023-04-16T04:50:51;102094.66;;;7.23;83.64
78411;BME280;67706;51.074;-1.796;2023-04-16T04:53:18;102092.63;;;7.35;83.30
78411;BME280;67706;51.074;-1.796;2023-04-16T04:55:44;102094.06;;;7.39;82.62
78411;BME280;67706;51.074;-1.796;2023-04-16T04:58:11;102092.34;;;7.29;83.37
78411;BME280;67706;51.074;-1.796;2023-04-16T05:00:38;102098.09;;;7.26;83.11
78411;BME280;67706;51.074;-1.796;2023-04-16T05:03:08;102092.78;;;7.24;83.09
78411;BME280;67706;51.074;-1.796;2023-04-16T05:05:36;102093.66;;;7.25;83.24
78411;BME280;67706;51.074;-1.796;2023-04-16T05:08:03;102094.94;;;7.30;83.16
78411;BME280;67706;51.074;-1.796;2023-04-16T05:10:30;102095.91;;;7.39;82.97
78411;BME280;67706;51.074;-1.796;2023-04-16T05:12:57;102097.50;;;7.41;83.06
78411;BME280;67706;51.074;-1.796;2023-04-16T05:15:24;102098.81;;;7.37;83.02
78411;BME280;67706;51.074;-1.796;2023-04-16T05:17:50;102101.53;;;7.37;83.34
78411;BME280;67706;51.074;-1.796;2023-04-16T05:20:17;102098.81;;;7.37;83.54
78411;BME280;67706;51.074;-1.796;2023-04-16T05:22:45;102102.41;;;7.28;83.76
78411;BME280;67706;51.074;-1.796;2023-04-16T05:25:12;102098.94;;;7.36;83.53
78411;BME280;67706;51.074;-1.796;2023-04-16T05:27:39;102109.84;;;7.45;83.31
78411;BME280;67706;51.074;-1.796;2023-04-16T05:30:07;102112.38;;;7.56;82.63
78411;BME280;67706;51.074;-1.796;2023-04-16T05:32:33;102100.03;;;7.52;82.38
78411;BME280;67706;51.074;-1.796;2023-04-16T05:35:00;102107.78;;;7.66;82.03
78411;BME280;67706;51.074;-1.796;2023-04-16T05:37:27;102107.19;;;7.63;82.51
78411;BME280;67706;51.074;-1.796;2023-04-16T05:39:55;102110.22;;;7.69;82.06
78411;BME280;67706;51.074;-1.796;2023-04-16T05:42:22;102106.91;;;7.66;82.03
78411;BME280;67706;51.074;-1.796;2023-04-16T05:44:49;102092.81;;;7.70;82.40
78411;BME280;67706;51.074;-1.796;2023-04-16T05:47:16;102099.13;;;7.71;82.17
78411;BME280;67706;51.074;-1.796;2023-04-16T05:49:43;102091.06;;;7.79;82.15
78411;BME280;67706;51.074;-1.796;2023-04-16T05:52:09;102104.00;;;7.77;82.21
78411;BME280;67706;51.074;-1.796;2023-04-16T05:54:36;102106.47;;;7.70;82.69
78411;BME280;67706;51.074;-1.796;2023-04-16T05:57:04;102108.91;;;7.73;82.52
78411;BME280;67706;51.074;-1.796;2023-04-16T05:59:31;102115.06;;;7.75;82.26
78411;BME280;67706;51.074;-1.796;2023-04-16T06:01:58;102098.78;;;7.83;82.01
78411;BME280;67706;51.074;-1.796;2023-04-16T06:04:25;102108.06;;;7.73;82.38
78411;BME280;67706;51.074;-1.796;2023-04-16T06:06:52;102097.13;;;7.73;82.63
78411;BME280;67706;51.074;-1.796;2023-04-16T06:09:19;102095.81;;;7.77;82.41
78411;BME280;67706;51.074;-1.796;2023-04-16T06:11:45;102107.31;;;7.80;82.65
78411;BME280;67706;51.074;-1.796;2023-04-16T06:14:14;102101.25;;;7.86;82.28
78411;BME280;67706;51.074;-1.796;2023-04-16T06:16:40;102106.97;;;7.83;82.63
78411;BME280;67706;51.074;-1.796;2023-04-16T06:19:07;102099.06;;;7.90;82.14
78411;BME280;67706;51.074;-1.796;2023-04-16T06:21:34;102103.41;;;7.83;82.43
78411;BME280;67706;51.074;-1.796;2023-04-16T06:24:02;102100.38;;;7.86;82.32
78411;BME280;67706;51.074;-1.796;2023-04-16T06:26:29;102101.41;;;7.85;81.94
78411;BME280;67706;51.074;-1.796;2023-04-16T06:28:55;102113.16;;;7.85;81.80
78411;BME280;67706;51.074;-1.796;2023-04-16T06:31:28;102109.72;;;7.83;82.07
78411;BME280;67706;51.074;-1.796;2023-04-16T06:33:55;102103.09;;;7.86;81.72
78411;BME280;67706;51.074;-1.796;2023-04-16T06:36:22;102113.47;;;7.82;82.65
78411;BME280;67706;51.074;-1.796;2023-04-16T06:38:48;102121.06;;;7.88;82.55
78411;BME280;67706;51.074;-1.796;2023-04-16T06:41:16;102124.88;;;8.05;82.16
78411;BME280;67706;51.074;-1.796;2023-04-16T06:43:42;102116.25;;;8.10;82.08
78411;BME280;67706;51.074;-1.796;2023-04-16T06:46:09;102115.22;;;8.11;81.50
78411;BME280;67706;51.074;-1.796;2023-04-16T06:48:37;102134.59;;;8.17;82.00
78411;BME280;67706;51.074;-1.796;2023-04-16T06:51:04;102129.00;;;8.19;81.97
78411;BME280;67706;51.074;-1.796;2023-04-16T06:53:31;102144.53;;;8.18;82.00
78411;BME280;67706;51.074;-1.796;2023-04-16T06:55:58;102135.47;;;8.27;81.21
78411;BME280;67706;51.074;-1.796;2023-04-16T06:58:24;102139.16;;;8.36;81.71
78411;BME280;67706;51.074;-1.796;2023-04-16T07:00:51;102141.31;;;8.42;81.15
78411;BME280;67706;51.074;-1.796;2023-04-16T07:03:18;102139.28;;;8.44;81.77
78411;BME280;67706;51.074;-1.796;2023-04-16T07:05:46;102141.06;;;8.53;80.84
78411;BME280;67706;51.074;-1.796;2023-04-16T07:08:13;102141.47;;;8.58;80.54
78411;BME280;67706;51.074;-1.796;2023-04-16T07:10:40;102136.03;;;8.58;81.19
78411;BME280;67706;51.074;-1.796;2023-04-16T07:13:07;102135.94;;;8.67;81.09
78411;BME280;67706;51.074;-1.796;2023-04-16T07:15:33;102136.34;;;8.72;80.45
78411;BME280;67706;51.074;-1.796;2023-04-16T07:18:00;102136.91;;;8.76;80.79
78411;BME280;67706;51.074;-1.796;2023-04-16T07:20:27;102136.91;;;8.76;80.69
78411;BME280;67706;51.074;-1.796;2023-04-16T07:22:55;102141.50;;;8.75;80.60
78411;BME280;67706;51.074;-1.796;2023-04-16T07:25:23;102135.66;;;8.88;80.66
78411;BME280;67706;51.074;-1.796;2023-04-16T07:27:51;102136.91;;;8.94;80.89
78411;BME280;67706;51.074;-1.796;2023-04-16T07:30:17;102132.22;;;9.04;80.89
78411;BME280;67706;51.074;-1.796;2023-04-16T07:32:45;102143.81;;;9.15;80.39
78411;BME280;67706;51.074;-1.796;2023-04-16T07:35:11;102133.16;;;9.12;80.43
78411;BME280;67706;51.074;-1.796;2023-04-16T07:37:38;102140.03;;;9.16;80.59
78411;BME280;67706;51.074;-1.796;2023-04-16T07:40:08;102143.56;;;9.26;79.98
78411;BME280;67706;51.074;-1.796;2023-04-16T07:42:35;102138.25;;;9.25;79.83
78411;BME280;67706;51.074;-1.796;2023-04-16T07:45:02;102157.19;;;9.36;79.74
78411;BME280;67706;51.074;-1.796;2023-04-16T07:47:29;102149.25;;;9.33;79.20
78411;BME280;67706;51.074;-1.796;2023-04-16T07:49:55;102143.06;;;9.48;78.65
78411;BME280;67706;51.074;-1.796;2023-04-16T07:52:22;102146.56;;;9.58;78.92
78411;BME280;67706;51.074;-1.796;2023-04-16T07:54:49;102147.09;;;9.62;78.78
78411;BME280;67706;51.074;-1.796;2023-04-16T07:57:18;102147.53;;;9.75;78.44
78411;BME280;67706;51.074;-1.796;2023-04-16T07:59:45;102152.34;;;9.73;78.17
78411;BME280;67706;51.074;-1.796;2023-04-16T08:02:14;102154.88;;;9.92;77.50
78411;BME280;67706;51.074;-1.796;2023-04-16T08:04:41;102157.59;;;9.92;77.44
78411;BME280;67706;51.074;-1.796;2023-04-16T08:07:08;102157.03;;;9.89;77.96
78411;BME280;67706;51.074;-1.796;2023-04-16T08:09:35;102155.25;;;9.72;78.05
78411;BME280;67706;51.074;-1.796;2023-04-16T08:12:02;102157.00;;;9.81;78.35
78411;BME280;67706;51.074;-1.796;2023-04-16T08:14:30;102149.59;;;9.99;77.29
78411;BME280;67706;51.074;-1.796;2023-04-16T08:16:57;102158.63;;;10.17;76.76
78411;BME280;67706;51.074;-1.796;2023-04-16T08:19:24;102164.13;;;10.17;76.53
78411;BME280;67706;51.074;-1.796;2023-04-16T08:21:50;102162.94;;;10.19;76.95
78411;BME280;67706;51.074;-1.796;2023-04-16T08:24:17;102159.06;;;10.30;76.77
78411;BME280;67706;51.074;-1.796;2023-04-16T08:26:44;102166.97;;;10.41;76.13
78411;BME280;67706;51.074;-1.796;2023-04-16T08:29:10;102159.31;;;10.53;75.15
78411;BME280;67706;51.074;-1.796;2023-04-16T08:31:39;102161.19;;;10.52;74.67
78411;BME280;67706;51.074;-1.796;2023-04-16T08:34:06;102160.00;;;10.55;75.64
78411;BME280;67706;51.074;-1.796;2023-04-16T08:36:35;102157.66;;;10.68;75.45
78411;BME280;67706;51.074;-1.796;2023-04-16T08:39:02;102163.56;;;10.89;74.22
78411;BME280;67706;51.074;-1.796;2023-04-16T08:41:30;102157.91;;;10.90;74.63
78411;BME280;67706;51.074;-1.796;2023-04-16T08:43:59;102163.72;;;10.87;75.32
78411;BME280;67706;51.074;-1.796;2023-04-16T08:46:28;102148.13;;;11.04;75.04
78411;BME280;67706;51.074;-1.796;2023-04-16T08:48:58;102162.91;;;11.11;75.88
78411;BME280;67706;51.074;-1.796;2023-04-16T08:51:28;102157.97;;;11.23;75.54
78411;BME280;67706;51.074;-1.796;2023-04-16T08:53:59;102164.28;;;11.23;74.33
78411;BME280;67706;51.074;-1.796;2023-04-16T08:56:30;102161.22;;;11.34;75.21
78411;BME280;67706;51.074;-1.796;2023-04-16T08:58:57;102158.47;;;11.42;73.93
78411;BME280;67706;51.074;-1.796;2023-04-16T09:01:26;102163.97;;;11.50;73.54
78411;BME280;67706;51.074;-1.796;2023-04-16T09:03:53;102165.34;;;11.46;73.06
78411;BME280;67706;51.074;-1.796;2023-04-16T09:06:21;102163.47;;;11.47;74.02
78411;BME280;67706;51.074;-1.796;2023-04-16T09:08:48;102171.00;;;11.53;74.50
78411;BME280;67706;51.074;-1.796;2023-04-16T09:11:16;102180.13;;;11.61;73.45
78411;BME280;67706;51.074;-1.796;2023-04-16T09:13:44;102179.63;;;11.58;72.94
78411;BME280;67706;51.074;-1.796;2023-04-16T09:16:12;102190.25;;;11.53;73.08
78411;BME280;67706;51.074;-1.796;2023-04-16T09:18:39;102187.19;;;11.56;73.68
78411;BME280;67706;51.074;-1.796;2023-04-16T09:21:08;102190.59;;;11.58;73.18
78411;BME280;67706;51.074;-1.796;2023-04-16T09:23:36;102191.63;;;11.49;72.92
78411;BME280;67706;51.074;-1.796;2023-04-16T09:26:04;102191.94;;;11.46;72.66
78411;BME280;67706;51.074;-1.796;2023-04-16T09:28:42;102187.88;;;11.50;72.04
78411;BME280;67706;51.074;-1.796;2023-04-16T09:31:12;102194.72;;;11.54;nan
78411;BME280;67706;51.074;-1.796;2023-04-16T09:33:40;102193.53;;;11.88;76.14
78411;BME280;67706;51.074;-1.796;2023-04-16T09:36:07;102190.78;;;11.88;70.84
78411;BME280;67706;51.074;-1.796;2023-04-16T09:38:48;102191.13;;;11.93;70.46
78411;BME280;67706;51.074;-1.796;2023-04-16T09:41:16;102193.88;;;12.02;71.17
78411;BME280;67706;51.074;-1.796;2023-04-16T09:43:53;102200.41;;;11.92;72.74
78411;BME280;67706;51.074;-1.796;2023-04-16T09:46:21;102197.50;;;11.78;73.59
78411;BME280;67706;51.074;-1.796;2023-04-16T09:48:48;102198.53;;;11.93;73.83
78411;BME280;67706;51.074;-1.796;2023-04-16T09:51:15;102197.50;;;11.86;74.92
78411;BME280;67706;51.074;-1.796;2023-04-16T09:53:42;102206.44;;;11.80;74.91
78411;BME280;67706;51.074;-1.796;2023-04-16T09:56:10;102199.22;;;11.79;75.05
78411;BME280;67706;51.074;-1.796;2023-04-16T09:58:37;102201.28;;;11.77;75.73
78411;BME280;67706;51.074;-1.796;2023-04-16T10:01:06;102208.50;;;11.78;74.95
78411;BME280;67706;51.074;-1.796;2023-04-16T10:03:35;102205.03;;;11.92;74.69
78411;BME280;67706;51.074;-1.796;2023-04-16T10:06:06;102209.16;;;12.12;73.90
78411;BME280;67706;51.074;-1.796;2023-04-16T10:08:34;102211.50;;;12.23;73.71
78411;BME280;67706;51.074;-1.796;2023-04-16T10:11:01;102208.94;;;12.30;73.43
78411;BME280;67706;51.074;-1.796;2023-04-16T10:13:30;102203.91;;;12.49;73.06
78411;BME280;67706;51.074;-1.796;2023-04-16T10:15:57;102212.84;;;12.51;74.36
78411;BME280;67706;51.074;-1.796;2023-04-16T10:18:24;102212.50;;;12.54;74.83
78411;BME280;67706;51.074;-1.796;2023-04-16T10:20:55;102218.00;;;12.54;75.73
78411;BME280;67706;51.074;-1.796;2023-04-16T10:23:22;102211.97;;;12.51;73.95
78411;BME280;67706;51.074;-1.796;2023-04-16T10:25:49;102215.25;;;12.46;74.00
78411;BME280;67706;51.074;-1.796;2023-04-16T10:28:17;102210.75;;;12.53;74.16
78411;BME280;67706;51.074;-1.796;2023-04-16T10:30:47;102216.19;;;12.69;73.15
78411;BME280;67706;51.074;-1.796;2023-04-16T10:33:19;102211.56;;;12.70;73.17
78411;BME280;67706;51.074;-1.796;2023-04-16T10:35:47;102208.75;;;12.78;70.86
78411;BME280;67706;51.074;-1.796;2023-04-16T10:38:23;102211.81;;;12.91;70.70
78411;BME280;67706;51.074;-1.796;2023-04-16T10:40:57;102214.03;;;12.96;69.08
78411;BME280;67706;51.074;-1.796;2023-04-16T10:43:24;102208.91;;;12.85;63.29
78411;BME280;67706;51.074;-1.796;2023-04-16T10:45:52;102212.63;;;13.00;64.03
78411;BME280;67706;51.074;-1.796;2023-04-16T10:48:19;102208.31;;;12.97;64.01
78411;BME280;67706;51.074;-1.796;2023-04-16T10:50:53;102210.53;;;13.02;63.32
78411;BME280;67706;51.074;-1.796;2023-04-16T10:53:23;102213.66;;;13.07;67.85
78411;BME280;67706;51.074;-1.796;2023-04-16T10:58:40;102206.97;;;13.24;67.19
78411;BME280;67706;51.074;-1.796;2023-04-16T11:01:13;102210.75;;;13.31;65.36
78411;BME280;67706;51.074;-1.796;2023-04-16T11:03:42;102207.94;;;13.39;65.80
78411;BME280;67706;51.074;-1.796;2023-04-16T11:06:12;102205.56;;;13.36;66.63
78411;BME280;67706;51.074;-1.796;2023-04-16T11:08:41;102201.06;;;13.35;66.84
78411;BME280;67706;51.074;-1.796;2023-04-16T11:11:12;102209.91;;;13.53;64.72
78411;BME280;67706;51.074;-1.796;2023-04-16T11:13:42;102199.25;;;13.50;59.26
78411;BME280;67706;51.074;-1.796;2023-04-16T11:16:11;102194.31;;;13.60;57.99
78411;BME280;67706;51.074;-1.796;2023-04-16T11:18:39;102204.72;;;13.73;57.81
78411;BME280;67706;51.074;-1.796;2023-04-16T11:21:07;102209.34;;;13.80;58.41
78411;BME280;67706;51.074;-1.796;2023-04-16T11:23:48;102217.91;;;13.85;58.81
78411;BME280;67706;51.074;-1.796;2023-04-16T11:26:25;102207.19;;;13.90;58.20
78411;BME280;67706;51.074;-1.796;2023-04-16T11:28:53;102204.00;;;13.79;58.79
78411;BME280;67706;51.074;-1.796;2023-04-16T11:31:21;102201.31;;;13.71;58.85
78411;BME280;67706;51.074;-1.796;2023-04-16T11:33:48;102201.31;;;13.71;58.55
78411;BME280;67706;51.074;-1.796;2023-04-16T11:36:15;102207.31;;;13.51;58.81
78411;BME280;67706;51.074;-1.796;2023-04-16T11:38:42;102207.53;;;13.87;57.66
78411;BME280;67706;51.074;-1.796;2023-04-16T11:41:09;102206.25;;;14.12;57.17
78411;BME280;67706;51.074;-1.796;2023-04-16T11:43:36;102199.38;;;14.31;57.99
78411;BME280;67706;51.074;-1.796;2023-04-16T11:46:03;102209.09;;;14.42;57.56
78411;BME280;67706;51.074;-1.796;2023-04-16T11:48:47;102206.22;;;14.35;58.36
78411;BME280;67706;51.074;-1.796;2023-04-16T11:51:14;102200.06;;;14.10;58.64
78411;BME280;67706;51.074;-1.796;2023-04-16T11:53:45;102196.66;;;14.08;57.91
78411;BME280;67706;51.074;-1.796;2023-04-16T11:56:13;102196.19;;;14.19;58.58
78411;BME280;67706;51.074;-1.796;2023-04-16T11:58:40;102199.66;;;14.36;56.99
78411;BME280;67706;51.074;-1.796;2023-04-16T12:01:07;102202.31;;;14.29;57.06
78411;BME280;67706;51.074;-1.796;2023-04-16T12:03:38;102198.34;;;14.47;56.36
78411;BME280;67706;51.074;-1.796;2023-04-16T12:06:09;102196.03;;;14.65;56.49
78411;BME280;67706;51.074;-1.796;2023-04-16T12:08:36;102201.75;;;14.63;55.79
78411;BME280;67706;51.074;-1.796;2023-04-16T12:11:03;102204.06;;;14.60;53.87
78411;BME280;67706;51.074;-1.796;2023-04-16T12:13:29;102202.91;;;14.40;54.41
78411;BME280;67706;51.074;-1.796;2023-04-16T12:16:15;102199.28;;;14.54;53.70
78411;BME280;67706;51.074;-1.796;2023-04-16T12:18:57;102199.66;;;14.51;53.37
78411;BME280;67706;51.074;-1.796;2023-04-16T12:21:36;102202.03;;;14.68;53.57
78411;BME280;67706;51.074;-1.796;2023-04-16T12:24:04;102201.66;;;14.71;53.52
78411;BME280;67706;51.074;-1.796;2023-04-16T12:26:41;102197.66;;;14.74;53.13
78411;BME280;67706;51.074;-1.796;2023-04-16T12:29:19;102198.09;;;14.92;51.24
78411;BME280;67706;51.074;-1.796;2023-04-16T12:31:47;102202.13;;;14.75;52.39
78411;BME280;67706;51.074;-1.796;2023-04-16T12:34:14;102201.31;;;14.45;52.19
78411;BME280;67706;51.074;-1.796;2023-04-16T12:36:43;102205.50;;;14.56;51.96
78411;BME280;67706;51.074;-1.796;2023-04-16T12:39:10;102211.47;;;14.74;50.69
78411;BME280;67706;51.074;-1.796;2023-04-16T12:41:39;102206.88;;;14.52;51.38
78411;BME280;67706;51.074;-1.796;2023-04-16T12:44:07;102202.31;;;14.59;52.14
78411;BME280;67706;51.074;-1.796;2023-04-16T12:46:37;102194.81;;;14.67;50.52
78411;BME280;67706;51.074;-1.796;2023-04-16T12:49:04;102205.19;;;14.80;50.11
78411;BME280;67706;51.074;-1.796;2023-04-16T12:51:31;102197.13;;;15.14;54.07